Terminal Aerodrome Forecast
Issued by NWS

Home | Current Version | Previous Version | Text Only | Print | Product List | Glossary On
Versions: 1 2 3 4 5 6 7 8 9 10 11 12 13 14 15
210
FTUS42 TJSJ 010055 CCA
TAFKPK
TAF COR
TKPK 010055Z 0100/0124 05011KT P6SM VCSH SCT019
     FM011500 08013KT P6SM SCT020
      AMD NOT SKED 0102/0111=

USA.gov is the U.S. government's official web portal to all federal, state and local government web resources and services.